Date,TemperatureHighF,TemperatureAvgF,TemperatureLowF,DewpointHighF,DewpointAvgF,DewpointLowF,HumidityHigh,HumidityAvg,HumidityLow,PressureMaxIn,PressureMinIn,WindSpeedMaxMPH,WindSpeedAvgMPH,GustSpeedMaxMPH,PrecipitationSumIn
2013-10-1,79,66,57,60,22,-29,59,21,2,30.07,29.97,2,0,9,0.00
2013-10-2,86,64,52,65,18,-41,58,18,2,30.10,29.99,2,0,7,0.00
2013-10-3,83,66,56,65,21,-37,58,19,1,30.11,30.00,5,0,5,0.00
2013-10-4,86,65,0,68,23,-36,58,20,1,30.09,30.00,6,0,6,0.00
2013-10-5,89,70,59,67,24,-37,58,19,4,30.09,29.97,7,0,7,0.00
2013-10-6,87,70,58,67,26,-32,58,22,1,30.00,29.85,4,0,11,0.00
2013-10-7,72,63,50,56,19,-12,61,24,8,30.04,29.70,14,1,14,0.00
2013-10-8,64,52,41,46,19,-50,59,25,2,30.28,30.03,17,1,17,0.00
2013-10-9,59,51,43,45,14,-47,60,20,1,30.31,30.22,9,1,15,0.00
2013-10-10,61,55,49,0,0,0,0,0,100,30.22,30.00,12,2,12,0.00
2013-10-11,65,58,54,40,4,-42,40,5,1,30.01,29.94,11,1,11,0.00
2013-10-12,66,61,58,0,0,0,0,0,100,30.15,29.98,10,2,12,0.00
2013-10-13,61,58,56,0,0,0,0,0,100,30.28,30.14,15,2,15,0.00
2013-10-14,63,58,51,0,0,0,0,0,100,30.29,30.21,6,1,6,0.00
2013-10-15,71,57,49,54,13,-43,59,15,1,30.22,30.07,10,0,10,0.00
2013-10-16,70,58,48,55,12,-40,59,12,1,30.08,29.90,4,0,4,0.00
2013-10-17,70,61,54,28,1,-36,30,2,1,29.90,29.71,3,0,8,0.00
2013-10-18,67,54,42,46,27,-49,62,37,1,29.99,29.84,11,0,11,0.00
2013-10-19,64,51,42,46,17,-18,63,22,9,29.98,29.76,7,0,7,0.00
2013-10-20,63,47,33,41,24,-54,65,42,1,30.10,29.90,7,0,7,0.00
2013-10-21,68,49,36,49,18,-42,60,23,2,30.13,29.94,6,0,13,0.00
2013-10-22,66,49,40,49,14,-52,61,21,1,29.94,29.80,5,0,8,0.00
2013-10-23,54,44,36,40,18,-52,63,40,1,29.93,29.65,9,1,11,0.00
2013-10-24,40,35,34,28,21,20,64,56,55,30.16,29.93,6,0,7,0.00
2013-10-25,34,34,34,20,20,20,55,55,55,30.27,30.15,0,0,0,0.00
2013-10-26,34,34,34,20,20,20,55,55,55,30.25,29.89,0,0,0,0.00
2013-10-27,64,44,34,40,25,-28,63,47,4,30.12,29.92,6,0,10,0.00
2013-10-28,65,46,34,46,15,-56,60,25,1,30.28,30.12,5,0,6,0.00
2013-10-29,65,49,38,48,16,-48,60,23,1,30.36,30.25,7,1,9,0.00
2013-10-30,67,56,47,49,10,-42,53,11,1,30.30,30.11,7,0,7,0.00
2013-10-31,69,59,51,53,12,-37,57,15,2,30.15,29.70,12,0,12,0.00